Mingo, West Virginia
Current Conditions -  °F | °C
As of 12:51 AM on Tuesday 21 Oct 2014 (Local Time) from KEKN Reporting Station
Overcast Overcast  
Wind Chill: 48°   Ceiling: 3100
Heat Index: 48°   Visibility: 10mi
Dew Point: 47°   Wind: 0mph
Humidity: 96%   Direction: NA
Pressure: 29.93"   Gusts: NA
Location:  38.5201°N, 80.0382°W
Report Text: KEKN 210451Z AUTO 00000KT 10SM BKN031 BKN050 OVC055 09/08 A2993 RMK AO2 SLP141 T00890083 401331011 TSNO
Loading
Personal Weather Stations






























Interactive Weather Map New forecast layout! Learn more

10-Day Weather Forecast

Advertisements
Track Severe Weather on mobile